createdAt,value
2018-03-18T00:00:54.512Z,-7.20
2018-03-18T00:03:22.811Z,-7.20
2018-03-18T00:05:51.127Z,-7.20
2018-03-18T00:08:19.464Z,-7.20
2018-03-18T00:10:47.883Z,-7.20
2018-03-18T00:13:16.215Z,-7.20
2018-03-18T00:15:45.338Z,-7.30
2018-03-18T00:18:13.675Z,-7.30
2018-03-18T00:20:42.074Z,-7.30
2018-03-18T00:23:10.420Z,-7.30
2018-03-18T00:25:38.718Z,-7.30
2018-03-18T00:28:07.044Z,-7.30
2018-03-18T00:30:35.409Z,-7.30
2018-03-18T00:33:03.729Z,-7.30
2018-03-18T00:35:32.179Z,-7.30
2018-03-18T00:38:00.492Z,-7.30
2018-03-18T00:40:28.797Z,-7.30
2018-03-18T00:42:57.228Z,-7.30
2018-03-18T00:45:26.313Z,-7.30
2018-03-18T00:47:55.028Z,-7.30
2018-03-18T00:50:23.346Z,-7.30
2018-03-18T00:52:51.664Z,-7.30
2018-03-18T00:55:20.064Z,-7.30
2018-03-18T00:57:48.404Z,-7.30
2018-03-18T01:00:17.641Z,-7.30
2018-03-18T01:02:45.983Z,-7.30
2018-03-18T01:05:14.347Z,-7.30
2018-03-18T01:07:42.724Z,-7.30
2018-03-18T01:10:11.251Z,-7.30
2018-03-18T01:12:39.651Z,-7.30
2018-03-18T01:15:07.987Z,-7.30
2018-03-18T01:17:36.396Z,-7.30
2018-03-18T01:20:04.707Z,-7.30
2018-03-18T01:22:32.995Z,-7.30
2018-03-18T01:25:01.363Z,-7.40
2018-03-18T01:27:29.667Z,-7.40
2018-03-18T01:29:58.017Z,-7.40
2018-03-18T01:32:27.085Z,-7.40
2018-03-18T01:34:55.655Z,-7.40
2018-03-18T01:37:24.112Z,-7.40
2018-03-18T01:39:53.192Z,-7.40
2018-03-18T01:42:21.531Z,-7.40
2018-03-18T01:44:49.872Z,-7.40
2018-03-18T01:47:18.202Z,-7.40
2018-03-18T01:49:46.588Z,-7.40
2018-03-18T01:52:15.745Z,-7.40
2018-03-18T01:54:44.121Z,-7.40
2018-03-18T01:57:13.260Z,-7.40
2018-03-18T01:59:41.550Z,-7.40
2018-03-18T02:02:10.202Z,-7.40
2018-03-18T02:04:38.551Z,-7.40
2018-03-18T02:07:06.850Z,-7.40
2018-03-18T02:09:35.160Z,-7.40
2018-03-18T02:12:04.296Z,-7.40
2018-03-18T02:14:32.587Z,-7.40
2018-03-18T02:17:00.896Z,-7.50
2018-03-18T02:19:29.239Z,-7.40
2018-03-18T02:21:58.308Z,-7.40
2018-03-18T02:24:26.683Z,-7.40
2018-03-18T02:26:55.037Z,-7.40
2018-03-18T02:29:24.100Z,-7.40
2018-03-18T02:31:52.410Z,-7.50
2018-03-18T02:34:20.759Z,-7.50
2018-03-18T02:36:49.140Z,-7.40
2018-03-18T02:39:17.459Z,-7.50
2018-03-18T02:41:45.811Z,-7.40
2018-03-18T02:44:14.202Z,-7.40
2018-03-18T02:46:42.533Z,-7.50
2018-03-18T02:49:10.897Z,-7.50
2018-03-18T02:51:39.229Z,-7.50
2018-03-18T02:54:08.446Z,-7.50
2018-03-18T02:56:36.783Z,-7.50
2018-03-18T02:59:05.088Z,-7.50
2018-03-18T03:01:33.400Z,-7.50
2018-03-18T03:04:01.736Z,-7.50
2018-03-18T03:06:30.923Z,-7.50
2018-03-18T03:08:59.251Z,-7.50
2018-03-18T03:11:27.545Z,-7.50
2018-03-18T03:13:55.904Z,-7.50
2018-03-18T03:16:24.252Z,-7.60
2018-03-18T03:18:52.702Z,-7.50
2018-03-18T03:21:21.794Z,-7.60
2018-03-18T03:23:50.180Z,-7.60
2018-03-18T03:26:19.394Z,-7.50
2018-03-18T03:28:47.741Z,-7.60
2018-03-18T03:31:16.063Z,-7.60
2018-03-18T03:33:44.576Z,-7.60
2018-03-18T03:36:13.687Z,-7.60
2018-03-18T03:38:42.861Z,-7.60
2018-03-18T03:41:11.187Z,-7.60
2018-03-18T03:43:40.271Z,-7.60
2018-03-18T03:46:08.579Z,-7.60
2018-03-18T03:48:36.883Z,-7.60
2018-03-18T03:51:06.118Z,-7.70
2018-03-18T03:53:34.415Z,-7.70
2018-03-18T03:56:02.708Z,-7.60
2018-03-18T03:58:31.027Z,-7.70
2018-03-18T04:00:59.319Z,-7.70
2018-03-18T04:03:27.624Z,-7.70
2018-03-18T04:05:55.959Z,-7.70
2018-03-18T04:08:24.272Z,-7.70
2018-03-18T04:10:52.607Z,-7.70
2018-03-18T04:13:21.717Z,-7.70
2018-03-18T04:15:50.886Z,-7.60
2018-03-18T04:18:19.256Z,-7.70
2018-03-18T04:20:48.331Z,-7.70
2018-03-18T04:23:17.426Z,-7.70
2018-03-18T04:25:45.809Z,-7.70
2018-03-18T04:28:14.221Z,-7.70
2018-03-18T04:30:42.588Z,-7.70
2018-03-18T04:33:10.969Z,-7.80
2018-03-18T04:35:39.303Z,-7.80
2018-03-18T04:38:08.379Z,-7.80
2018-03-18T04:40:36.766Z,-7.80
2018-03-18T04:43:05.086Z,-7.80
2018-03-18T04:45:33.388Z,-7.80
2018-03-18T04:48:02.456Z,-7.80
2018-03-18T04:50:30.766Z,-7.80
2018-03-18T04:52:59.075Z,-7.90
2018-03-18T04:55:28.150Z,-7.90
2018-03-18T04:57:56.634Z,-8.00
2018-03-18T05:00:24.990Z,-7.90
2018-03-18T05:02:53.318Z,-8.00
2018-03-18T05:05:21.663Z,-8.00
2018-03-18T05:07:50.036Z,-8.00
2018-03-18T05:10:19.269Z,-8.00
2018-03-18T05:12:47.695Z,-8.00
2018-03-18T05:15:16.041Z,-8.00
2018-03-18T05:17:44.449Z,-7.90
2018-03-18T05:20:12.748Z,-8.00
2018-03-18T05:22:41.179Z,-8.00
2018-03-18T05:25:09.530Z,-8.00
2018-03-18T05:27:37.862Z,-8.00
2018-03-18T05:30:06.280Z,-8.00
2018-03-18T05:32:35.356Z,-8.10
2018-03-18T05:35:03.732Z,-8.10
2018-03-18T05:37:32.036Z,-8.10
2018-03-18T05:40:00.456Z,-8.10
2018-03-18T05:42:28.758Z,-8.00
2018-03-18T05:44:57.889Z,-8.00
2018-03-18T05:47:26.265Z,-8.10
2018-03-18T05:49:55.323Z,-8.10
2018-03-18T05:52:23.707Z,-8.10
2018-03-18T05:54:52.123Z,-8.10
2018-03-18T05:57:20.460Z,-8.00
2018-03-18T05:59:48.826Z,-8.10
2018-03-18T06:02:18.011Z,-8.10
2018-03-18T06:04:46.412Z,-8.10
2018-03-18T06:07:14.763Z,-8.10
2018-03-18T06:09:43.097Z,-8.10
2018-03-18T06:12:11.418Z,-8.10
2018-03-18T06:14:40.490Z,-8.20
2018-03-18T06:17:08.788Z,-8.20
2018-03-18T06:19:37.589Z,-8.20
2018-03-18T06:22:06.661Z,-8.20
2018-03-18T06:24:34.980Z,-8.20
2018-03-18T06:27:03.290Z,-8.20
2018-03-18T06:29:32.681Z,-8.20
2018-03-18T06:32:01.132Z,-8.30
2018-03-18T06:34:29.455Z,-8.30
2018-03-18T06:36:57.751Z,-8.30
2018-03-18T06:39:26.053Z,-8.30
2018-03-18T06:41:54.407Z,-8.20
2018-03-18T06:44:22.776Z,-8.20
2018-03-18T06:46:51.079Z,-8.10
2018-03-18T06:49:19.448Z,-8.10
2018-03-18T06:51:47.828Z,-8.10
2018-03-18T06:54:16.164Z,-7.90
2018-03-18T06:56:44.756Z,-7.90
2018-03-18T06:59:13.975Z,-7.90
2018-03-18T07:01:42.353Z,-8.00
2018-03-18T07:04:10.673Z,-8.00
2018-03-18T07:06:39.016Z,-8.00
2018-03-18T07:09:08.100Z,-8.00
2018-03-18T07:11:36.415Z,-8.00
2018-03-18T07:14:04.734Z,-8.10
2018-03-18T07:16:33.064Z,-8.10
2018-03-18T07:19:01.396Z,-8.20
2018-03-18T07:21:29.692Z,-8.20
2018-03-18T07:23:58.052Z,-8.20
2018-03-18T07:26:27.133Z,-8.00
2018-03-18T07:28:55.465Z,-8.10
2018-03-18T07:31:23.779Z,-8.00
2018-03-18T07:33:52.102Z,-8.00
2018-03-18T07:36:20.476Z,-7.90
2018-03-18T07:38:48.786Z,-7.90
2018-03-18T07:41:17.089Z,-7.90
2018-03-18T07:43:45.412Z,-7.70
2018-03-18T07:46:13.878Z,-7.50
2018-03-18T07:48:42.266Z,-7.40
2018-03-18T07:51:11.376Z,-7.50
2018-03-18T07:53:39.753Z,-7.50
2018-03-18T07:56:08.115Z,-7.40
2018-03-18T07:58:36.603Z,-7.30
2018-03-18T08:01:05.010Z,-7.30
2018-03-18T08:03:33.431Z,-7.20
2018-03-18T08:06:01.764Z,-7.20
2018-03-18T08:08:30.080Z,-7.10
2018-03-18T08:10:58.808Z,-7.10
2018-03-18T08:13:27.118Z,-7.00
2018-03-18T08:15:55.431Z,-7.00
2018-03-18T08:18:23.731Z,-6.90
2018-03-18T08:20:52.164Z,-6.90
2018-03-18T08:23:20.534Z,-6.90
2018-03-18T08:25:48.855Z,-7.00
2018-03-18T08:28:17.161Z,-7.10
2018-03-18T08:30:45.477Z,-7.10
2018-03-18T08:33:14.564Z,-7.00
2018-03-18T08:35:43.036Z,-7.00
2018-03-18T08:38:11.375Z,-6.90
2018-03-18T08:40:39.699Z,-6.70
2018-03-18T08:43:08.046Z,-6.40
2018-03-18T08:45:37.148Z,-5.90
2018-03-18T08:48:06.283Z,-5.80
2018-03-18T08:50:34.644Z,-5.80
2018-03-18T08:53:03.817Z,-5.80
2018-03-18T08:55:32.139Z,-5.80
2018-03-18T08:58:01.208Z,-5.60
2018-03-18T09:00:29.657Z,-5.60
2018-03-18T09:02:58.731Z,-5.70
2018-03-18T09:05:27.195Z,-5.70
2018-03-18T09:07:55.558Z,-5.90
2018-03-18T09:10:24.647Z,-6.20
2018-03-18T09:12:53.062Z,-6.20
2018-03-18T09:15:21.388Z,-6.30
2018-03-18T09:17:49.736Z,-6.20
2018-03-18T09:20:18.794Z,-5.90
2018-03-18T09:22:47.150Z,-5.80
2018-03-18T09:25:15.496Z,-5.80
2018-03-18T09:27:43.882Z,-5.90
2018-03-18T09:30:12.235Z,-5.80
2018-03-18T09:32:40.559Z,-6.20
2018-03-18T09:35:08.982Z,-6.00
2018-03-18T09:37:37.301Z,-6.20
2018-03-18T09:40:05.650Z,-6.40
2018-03-18T09:42:33.976Z,-6.50
2018-03-18T09:45:02.290Z,-6.50
2018-03-18T09:47:30.672Z,-6.40
2018-03-18T09:49:58.982Z,-6.40
2018-03-18T09:52:27.371Z,-6.40
2018-03-18T09:54:55.736Z,-6.40
2018-03-18T09:57:24.084Z,-6.50
2018-03-18T09:59:52.633Z,-6.50
2018-03-18T10:02:20.975Z,-6.30
2018-03-18T10:04:49.306Z,-6.00
2018-03-18T10:07:17.717Z,-5.70
2018-03-18T10:09:46.017Z,-5.70
2018-03-18T10:12:14.382Z,-5.60
2018-03-18T10:14:42.812Z,-5.40
2018-03-18T10:17:11.154Z,-5.30
2018-03-18T10:19:39.528Z,-5.50
2018-03-18T10:22:08.629Z,-5.70
2018-03-18T10:24:37.918Z,-5.80
2018-03-18T10:27:06.256Z,-5.80
2018-03-18T10:29:34.662Z,-5.70
2018-03-18T10:32:02.978Z,-5.60
2018-03-18T10:34:31.281Z,-5.40
2018-03-18T10:36:59.610Z,-5.40
2018-03-18T10:39:28.750Z,-5.50
2018-03-18T10:41:57.171Z,-5.50
2018-03-18T10:44:25.485Z,-5.70
2018-03-18T10:46:53.877Z,-5.70
2018-03-18T10:49:22.216Z,-5.70
2018-03-18T10:51:50.511Z,-5.80
2018-03-18T10:54:18.960Z,-5.80
2018-03-18T10:56:47.274Z,-5.70
2018-03-18T10:59:15.605Z,-5.70
2018-03-18T11:01:49.061Z,-5.60
2018-03-18T11:04:18.113Z,-5.20
2018-03-18T11:06:46.423Z,-5.20
2018-03-18T11:09:16.451Z,-4.50
2018-03-18T11:11:44.765Z,-4.60
2018-03-18T11:14:13.088Z,-4.60
2018-03-18T11:16:41.414Z,-4.50
2018-03-18T11:19:09.765Z,-4.30
2018-03-18T11:21:38.102Z,-4.00
2018-03-18T11:24:06.454Z,-3.70
2018-03-18T11:26:34.761Z,-3.50
2018-03-18T11:29:03.100Z,-3.40
2018-03-18T11:31:31.404Z,-3.70
2018-03-18T11:34:00.500Z,-3.90
2018-03-18T11:36:28.794Z,-4.00
2018-03-18T11:38:57.956Z,-3.40
2018-03-18T11:41:26.268Z,-3.50
2018-03-18T11:43:54.567Z,-3.30
2018-03-18T11:46:22.900Z,-3.50
2018-03-18T11:48:51.956Z,-3.80
2018-03-18T11:51:20.362Z,-3.80
2018-03-18T11:53:48.669Z,-3.40
2018-03-18T11:56:17.096Z,-3.50
2018-03-18T11:58:45.408Z,-3.60
2018-03-18T12:01:13.733Z,-3.40
2018-03-18T12:03:42.144Z,-3.40
2018-03-18T12:06:10.510Z,-3.40
2018-03-18T12:09:03.512Z,-3.40
2018-03-18T12:11:32.603Z,-3.50
2018-03-18T12:14:01.813Z,-3.40
2018-03-18T12:16:30.124Z,-3.40
2018-03-18T12:18:59.197Z,-3.30
2018-03-18T12:21:27.507Z,-3.30
2018-03-18T12:23:56.588Z,-3.60
2018-03-18T12:26:24.959Z,-3.70
2018-03-18T12:28:53.290Z,-3.80
2018-03-18T12:31:21.583Z,-3.70
2018-03-18T12:33:49.921Z,-3.90
2018-03-18T12:36:18.220Z,-3.80
2018-03-18T12:38:46.596Z,-3.50
2018-03-18T12:41:14.957Z,-3.50
2018-03-18T12:43:43.365Z,-3.50
2018-03-18T12:46:11.715Z,-3.30
2018-03-18T12:48:40.079Z,-3.20
2018-03-18T12:51:08.456Z,-2.90
2018-03-18T12:53:36.837Z,-2.60
2018-03-18T12:56:05.291Z,-2.30
2018-03-18T12:58:34.731Z,-2.30
2018-03-18T13:01:03.165Z,-2.40
2018-03-18T13:03:31.524Z,-2.90
2018-03-18T13:06:00.631Z,-3.50
2018-03-18T13:08:29.699Z,-3.70
2018-03-18T13:10:58.017Z,-3.80
2018-03-18T13:13:27.190Z,-3.90
2018-03-18T13:15:55.553Z,-3.90
2018-03-18T13:18:23.857Z,-4.00
2018-03-18T13:20:52.171Z,-4.10
2018-03-18T13:23:20.475Z,-4.30
2018-03-18T13:25:48.827Z,-4.30
2018-03-18T13:28:17.189Z,-4.40
2018-03-18T13:30:45.503Z,-4.40
2018-03-18T13:33:13.885Z,-4.40
2018-03-18T13:35:42.966Z,-4.60
2018-03-18T13:38:12.072Z,-4.60
2018-03-18T13:40:41.171Z,-4.60
2018-03-18T13:43:09.512Z,-4.60
2018-03-18T13:45:37.922Z,-4.60
2018-03-18T13:48:06.256Z,-4.50
2018-03-18T13:50:36.196Z,-4.40
2018-03-18T13:53:04.527Z,-4.40
2018-03-18T13:55:32.849Z,-4.50
2018-03-18T13:58:01.228Z,-4.30
2018-03-18T14:00:29.534Z,-4.30
2018-03-18T14:02:57.916Z,-4.30
2018-03-18T14:05:26.224Z,-4.30
2018-03-18T14:07:55.335Z,-4.20
2018-03-18T14:10:24.493Z,-4.30
2018-03-18T14:12:52.803Z,-4.30
2018-03-18T14:15:21.351Z,-4.40
2018-03-18T14:17:49.650Z,-4.30
2018-03-18T14:20:18.019Z,-4.50
2018-03-18T14:22:46.299Z,-4.40
2018-03-18T14:25:14.623Z,-4.40
2018-03-18T14:27:42.982Z,-4.40
2018-03-18T14:30:11.295Z,-4.40
2018-03-18T14:32:39.664Z,-4.50
2018-03-18T14:35:08.792Z,-4.70
2018-03-18T14:37:37.135Z,-4.70
2018-03-18T14:40:05.730Z,-4.60
2018-03-18T14:42:34.060Z,-4.60
2018-03-18T14:45:13.378Z,-4.60
2018-03-18T14:47:42.492Z,-4.60
2018-03-18T14:50:10.866Z,-4.60
2018-03-18T14:52:39.262Z,-4.50
2018-03-18T14:55:07.603Z,-4.50
2018-03-18T14:57:35.998Z,-4.50
2018-03-18T15:00:04.361Z,-4.40
2018-03-18T15:02:32.820Z,-4.30
2018-03-18T15:05:01.126Z,-4.10
2018-03-18T15:07:29.437Z,-4.20
2018-03-18T15:09:57.760Z,-4.20
2018-03-18T15:12:26.049Z,-4.30
2018-03-18T15:14:54.520Z,-4.40
2018-03-18T15:17:23.592Z,-4.40
2018-03-18T15:19:51.915Z,-4.40
2018-03-18T15:22:21.004Z,-4.40
2018-03-18T15:24:49.339Z,-4.50
2018-03-18T15:27:17.748Z,-4.50
2018-03-18T15:29:46.063Z,-4.50
2018-03-18T15:32:14.452Z,-4.50
2018-03-18T15:34:42.774Z,-4.50
2018-03-18T15:37:11.139Z,-4.50
2018-03-18T15:39:39.454Z,-4.50
2018-03-18T15:42:07.804Z,-4.50
2018-03-18T15:44:36.520Z,-4.60
2018-03-18T15:47:04.855Z,-4.70
2018-03-18T15:49:33.932Z,-4.70
2018-03-18T15:52:02.249Z,-4.70
2018-03-18T15:54:31.335Z,-4.90
2018-03-18T15:56:59.696Z,-4.90
2018-03-18T15:59:28.006Z,-4.90
2018-03-18T16:01:56.338Z,-4.90
2018-03-18T16:04:25.430Z,-4.90
2018-03-18T16:06:54.607Z,-4.90
2018-03-18T16:09:22.998Z,-4.90
2018-03-18T16:11:51.345Z,-4.90
2018-03-18T16:14:20.431Z,-5.00
2018-03-18T16:16:48.756Z,-5.10
2018-03-18T16:19:17.069Z,-5.10
2018-03-18T16:21:45.452Z,-5.10
2018-03-18T16:24:13.782Z,-5.10
2018-03-18T16:26:42.118Z,-5.10
2018-03-18T16:29:22.139Z,-5.10
2018-03-18T16:31:50.449Z,-5.10
2018-03-18T16:34:19.524Z,-5.00
2018-03-18T16:36:47.855Z,-5.00
2018-03-18T16:39:16.955Z,-5.00
2018-03-18T16:41:46.061Z,-5.10
2018-03-18T16:44:14.360Z,-5.10
2018-03-18T16:46:42.769Z,-5.10
2018-03-18T16:49:11.098Z,-5.10
2018-03-18T16:51:39.461Z,-5.20
2018-03-18T16:54:08.568Z,-5.30
2018-03-18T16:56:36.888Z,-5.30
2018-03-18T16:59:05.216Z,-5.30
2018-03-18T17:01:33.609Z,-5.40
2018-03-18T17:04:02.719Z,-5.50
2018-03-18T17:06:31.933Z,-5.60
2018-03-18T17:09:00.264Z,-5.60
2018-03-18T17:11:28.618Z,-5.60
2018-03-18T17:13:57.832Z,-5.60
2018-03-18T17:16:26.911Z,-5.70
2018-03-18T17:18:55.218Z,-5.70
2018-03-18T17:21:23.540Z,-5.70
2018-03-18T17:23:51.954Z,-5.70
2018-03-18T17:26:20.471Z,-5.80
2018-03-18T17:28:48.780Z,-5.80
2018-03-18T17:31:17.199Z,-5.80
2018-03-18T17:33:45.509Z,-5.80
2018-03-18T17:36:13.834Z,-5.90
2018-03-18T17:38:42.205Z,-5.90
2018-03-18T17:41:10.551Z,-5.90
2018-03-18T17:43:38.961Z,-5.90
2018-03-18T17:46:19.776Z,-5.90
2018-03-18T17:48:59.843Z,-6.00
2018-03-18T17:51:40.073Z,-6.00
2018-03-18T17:54:20.929Z,-6.10
2018-03-18T17:56:49.263Z,-6.10
2018-03-18T17:59:17.586Z,-6.10
2018-03-18T18:01:45.896Z,-6.10
2018-03-18T18:04:14.246Z,-6.10
2018-03-18T18:06:42.570Z,-6.10
2018-03-18T18:09:10.936Z,-6.10
2018-03-18T18:11:39.272Z,-6.10
2018-03-18T18:14:07.761Z,-6.10
2018-03-18T18:16:36.102Z,-6.10
2018-03-18T18:19:04.541Z,-6.20
2018-03-18T18:21:32.909Z,-6.10
2018-03-18T18:24:01.251Z,-6.20
2018-03-18T18:26:30.314Z,-6.20
2018-03-18T18:28:58.689Z,-6.20
2018-03-18T18:31:27.035Z,-6.20
2018-03-18T18:33:55.396Z,-6.20
2018-03-18T18:36:23.835Z,-6.20
2018-03-18T18:38:53.143Z,-6.30
2018-03-18T18:41:22.264Z,-6.30
2018-03-18T18:43:50.613Z,-6.30
2018-03-18T18:46:19.049Z,-6.30
2018-03-18T18:48:47.379Z,-6.30
2018-03-18T18:51:15.718Z,-6.30
2018-03-18T18:53:44.886Z,-6.30
2018-03-18T18:56:13.217Z,-6.30
2018-03-18T18:58:42.305Z,-6.40
2018-03-18T19:01:10.657Z,-6.40
2018-03-18T19:03:39.040Z,-6.40
2018-03-18T19:06:07.463Z,-6.30
2018-03-18T19:08:36.917Z,-6.30
2018-03-18T19:11:06.059Z,-6.30
2018-03-18T19:13:34.358Z,-6.30
2018-03-18T19:16:02.772Z,-6.30
2018-03-18T19:18:31.088Z,-6.30
2018-03-18T19:20:59.380Z,-6.30
2018-03-18T19:23:28.463Z,-6.30
2018-03-18T19:25:56.783Z,-6.30
2018-03-18T19:28:25.086Z,-6.30
2018-03-18T19:30:54.146Z,-6.40
2018-03-18T19:33:22.473Z,-6.40
2018-03-18T19:35:51.533Z,-6.40
2018-03-18T19:38:19.840Z,-6.40
2018-03-18T19:40:48.136Z,-6.40
2018-03-18T19:43:16.565Z,-6.40
2018-03-18T19:45:45.627Z,-6.40
2018-03-18T19:48:13.969Z,-6.40
2018-03-18T19:50:42.314Z,-6.40
2018-03-18T19:53:10.628Z,-6.30
2018-03-18T19:55:39.731Z,-6.40
2018-03-18T19:58:08.061Z,-6.40
2018-03-18T20:00:36.384Z,-6.40
2018-03-18T20:03:04.740Z,-6.40
2018-03-18T20:05:33.048Z,-6.40
2018-03-18T20:08:01.397Z,-6.40
2018-03-18T20:10:29.816Z,-6.30
2018-03-18T20:12:58.203Z,-6.30
2018-03-18T20:15:26.525Z,-6.30
2018-03-18T20:17:54.844Z,-6.30
2018-03-18T20:20:23.289Z,-6.40
2018-03-18T20:22:51.607Z,-6.40
2018-03-18T20:25:19.924Z,-6.50
2018-03-18T20:27:48.256Z,-6.40
2018-03-18T20:30:16.596Z,-6.50
2018-03-18T20:32:44.964Z,-6.60
2018-03-18T20:35:13.337Z,-6.50
2018-03-18T20:37:41.688Z,-6.60
2018-03-18T20:40:10.085Z,-6.60
2018-03-18T20:42:39.282Z,-6.50
2018-03-18T20:45:07.645Z,-6.60
2018-03-18T20:47:37.148Z,-6.50
2018-03-18T20:50:06.466Z,-6.60
2018-03-18T20:52:34.805Z,-6.50
2018-03-18T20:55:03.999Z,-6.60
2018-03-18T20:57:32.379Z,-6.60
2018-03-18T21:00:00.734Z,-6.60
2018-03-18T21:02:29.172Z,-6.70
2018-03-18T21:04:57.551Z,-6.70
2018-03-18T21:07:25.899Z,-6.70
2018-03-18T21:09:54.434Z,-6.70
2018-03-18T21:12:22.765Z,-6.80
2018-03-18T21:14:51.886Z,-6.70
2018-03-18T21:17:21.074Z,-6.80
2018-03-18T21:19:49.410Z,-6.80
2018-03-18T21:22:17.793Z,-6.70
2018-03-18T21:24:46.185Z,-6.80
2018-03-18T21:27:14.517Z,-6.80
2018-03-18T21:29:42.844Z,-6.80
2018-03-18T21:32:12.032Z,-6.80
2018-03-18T21:34:40.367Z,-6.90
2018-03-18T21:37:08.787Z,-6.90
2018-03-18T21:39:37.172Z,-6.90
2018-03-18T21:42:05.529Z,-6.90
2018-03-18T21:44:33.947Z,-7.00
2018-03-18T21:47:02.361Z,-7.00
2018-03-18T21:49:30.700Z,-6.90
2018-03-18T21:51:59.779Z,-6.90
2018-03-18T21:54:28.164Z,-6.90
2018-03-18T21:56:56.497Z,-6.90
2018-03-18T21:59:25.605Z,-7.00
2018-03-18T22:01:54.744Z,-7.00
2018-03-18T22:04:23.068Z,-7.00
2018-03-18T22:06:51.482Z,-7.10
2018-03-18T22:09:19.900Z,-7.10
2018-03-18T22:11:48.257Z,-7.10
2018-03-18T22:14:16.648Z,-7.10
2018-03-18T22:16:45.018Z,-7.10
2018-03-18T22:19:13.385Z,-7.20
2018-03-18T22:21:42.094Z,-7.20
2018-03-18T22:24:10.447Z,-7.30
2018-03-18T22:26:39.546Z,-7.30
2018-03-18T22:29:07.964Z,-7.30
2018-03-18T22:31:36.285Z,-7.30
2018-03-18T22:34:04.603Z,-7.40
2018-03-18T22:36:32.926Z,-7.40
2018-03-18T22:39:02.024Z,-7.40
2018-03-18T22:41:31.111Z,-7.40
2018-03-18T22:43:59.422Z,-7.50
2018-03-18T22:46:28.507Z,-7.50
2018-03-18T22:48:56.806Z,-7.50
2018-03-18T22:51:25.212Z,-7.50
2018-03-18T22:53:53.530Z,-7.60
2018-03-18T22:56:21.843Z,-7.60
2018-03-18T22:58:50.899Z,-7.60
2018-03-18T23:01:19.980Z,-7.60
2018-03-18T23:03:48.371Z,-7.60
2018-03-18T23:06:16.695Z,-7.60
2018-03-18T23:08:45.772Z,-7.70
2018-03-18T23:11:14.175Z,-7.70
2018-03-18T23:13:42.474Z,-7.80
2018-03-18T23:16:11.228Z,-7.70
2018-03-18T23:18:39.538Z,-7.70
2018-03-18T23:21:07.959Z,-7.80
2018-03-18T23:23:37.045Z,-7.90
2018-03-18T23:26:05.368Z,-7.90
2018-03-18T23:28:34.494Z,-7.80
2018-03-18T23:31:02.795Z,-7.80
2018-03-18T23:33:31.094Z,-7.90
2018-03-18T23:35:59.395Z,-7.80
2018-03-18T23:38:27.691Z,-7.80
2018-03-18T23:40:56.031Z,-7.80
2018-03-18T23:43:25.093Z,-7.70
2018-03-18T23:45:53.381Z,-7.70
2018-03-18T23:48:21.678Z,-7.70
2018-03-18T23:50:49.999Z,-7.80
2018-03-18T23:53:19.060Z,-7.90
2018-03-18T23:55:47.365Z,-7.90
2018-03-18T23:58:15.681Z,-7.90
